createdAt,value
2018-06-12T00:00:40.643Z,16.97
2018-06-12T00:03:09.521Z,19.40
2018-06-12T00:05:38.424Z,17.27
2018-06-12T00:08:07.314Z,16.83
2018-06-12T00:10:36.210Z,19.80
2018-06-12T00:13:05.112Z,16.83
2018-06-12T00:15:34.015Z,16.00
2018-06-12T00:18:02.903Z,16.20
2018-06-12T00:20:31.795Z,17.27
2018-06-12T00:23:00.675Z,16.53
2018-06-12T00:25:29.567Z,17.20
2018-06-12T00:27:58.447Z,16.63
2018-06-12T00:30:27.351Z,16.77
2018-06-12T00:32:56.232Z,17.20
2018-06-12T00:35:25.134Z,18.47
2018-06-12T00:37:54.036Z,17.50
2018-06-12T00:40:22.939Z,20.27
2018-06-12T00:42:51.834Z,18.90
2018-06-12T00:45:20.752Z,18.00
2018-06-12T00:47:49.702Z,18.67
2018-06-12T00:50:18.607Z,18.27
2018-06-12T00:52:47.768Z,21.10
2018-06-12T00:55:16.663Z,17.40
2018-06-12T00:57:45.559Z,18.53
2018-06-12T01:00:14.468Z,17.17
2018-06-12T01:02:43.351Z,17.37
2018-06-12T01:05:12.259Z,18.53
2018-06-12T01:07:41.162Z,18.87
2018-06-12T01:10:10.078Z,19.47
2018-06-12T01:12:38.964Z,18.33
2018-06-12T01:15:07.862Z,19.03
2018-06-12T01:17:36.776Z,19.20
2018-06-12T01:20:05.730Z,18.73
2018-06-12T01:22:34.635Z,21.93
2018-06-12T01:25:03.871Z,18.50
2018-06-12T01:27:32.763Z,18.13
2018-06-12T01:30:01.668Z,21.57
2018-06-12T01:32:30.587Z,21.10
2018-06-12T01:34:59.483Z,19.47
2018-06-12T01:37:28.399Z,18.67
2018-06-12T01:39:57.298Z,19.77
2018-06-12T01:42:26.210Z,19.90
2018-06-12T01:44:55.112Z,19.53
2018-06-12T01:47:24.035Z,19.90
2018-06-12T01:49:52.936Z,20.30
2018-06-12T01:52:21.998Z,19.63
2018-06-12T01:54:50.900Z,21.70
2018-06-12T01:57:19.806Z,19.67
2018-06-12T01:59:48.711Z,20.93
2018-06-12T02:02:17.646Z,20.60
2018-06-12T02:04:46.538Z,19.77
2018-06-12T02:07:15.466Z,20.77
2018-06-12T02:09:44.366Z,21.07
2018-06-12T02:12:13.274Z,21.50
2018-06-12T02:14:42.163Z,19.20
2018-06-12T02:17:11.075Z,18.67
2018-06-12T02:19:39.960Z,18.03
2018-06-12T02:22:08.866Z,17.37
2018-06-12T02:24:37.766Z,19.83
2018-06-12T02:27:06.690Z,15.93
2018-06-12T02:29:35.586Z,17.93
2018-06-12T02:32:04.660Z,18.67
2018-06-12T02:34:33.518Z,17.60
2018-06-12T02:37:02.424Z,17.17
2018-06-12T02:39:31.314Z,17.80
2018-06-12T02:42:00.219Z,15.70
2018-06-12T02:44:29.114Z,15.77
2018-06-12T02:46:58.013Z,15.77
2018-06-12T02:49:26.895Z,16.70
2018-06-12T02:51:55.799Z,17.30
2018-06-12T02:54:24.987Z,17.20
2018-06-12T02:56:53.896Z,16.77
2018-06-12T02:59:22.796Z,15.60
2018-06-12T03:01:51.707Z,17.43
2018-06-12T03:04:20.591Z,18.20
2018-06-12T03:06:49.492Z,14.57
2018-06-12T03:09:18.418Z,17.87
2018-06-12T03:11:47.326Z,17.30
2018-06-12T03:14:16.237Z,14.47
2018-06-12T03:16:45.150Z,16.77
2018-06-12T03:19:14.054Z,17.83
2018-06-12T03:21:42.976Z,14.60
2018-06-12T03:24:11.874Z,18.77
2018-06-12T03:26:40.801Z,17.80
2018-06-12T03:29:09.703Z,17.73
2018-06-12T03:31:38.590Z,15.10
2018-06-12T03:34:07.516Z,16.30
2018-06-12T03:36:36.422Z,16.93
2018-06-12T03:39:06.109Z,17.50
2018-06-12T03:41:34.933Z,14.83
2018-06-12T03:44:03.845Z,17.43
2018-06-12T03:46:32.735Z,14.47
2018-06-12T03:49:01.893Z,16.20
2018-06-12T03:51:30.785Z,16.13
2018-06-12T03:53:59.701Z,13.23
2018-06-12T03:56:28.599Z,14.47
2018-06-12T03:58:57.523Z,16.07
2018-06-12T04:01:26.420Z,15.30
2018-06-12T04:03:55.418Z,13.33
2018-06-12T04:06:24.323Z,16.40
2018-06-12T04:08:53.263Z,17.43
2018-06-12T04:11:22.150Z,19.73
2018-06-12T04:13:51.057Z,16.87
2018-06-12T04:16:19.940Z,16.37
2018-06-12T04:18:48.847Z,13.53
2018-06-12T04:21:17.739Z,13.93
2018-06-12T04:23:46.648Z,11.20
2018-06-12T04:26:15.534Z,12.70
2018-06-12T04:28:44.437Z,11.23
2018-06-12T04:31:13.322Z,12.67
2018-06-12T04:33:42.227Z,12.73
2018-06-12T04:36:11.114Z,14.87
2018-06-12T04:38:40.028Z,14.80
2018-06-12T04:41:09.356Z,14.23
2018-06-12T04:43:38.268Z,13.33
2018-06-12T04:46:10.963Z,12.13
2018-06-12T04:48:39.862Z,12.83
2018-06-12T04:51:08.745Z,12.53
2018-06-12T04:53:37.651Z,11.80
2018-06-12T04:56:06.558Z,14.40
2018-06-12T04:58:35.509Z,15.03
2018-06-12T05:01:04.352Z,13.23
2018-06-12T05:03:33.277Z,11.30
2018-06-12T05:06:02.156Z,12.97
2018-06-12T05:08:31.082Z,12.07
2018-06-12T05:10:59.974Z,13.13
2018-06-12T05:13:28.883Z,11.43
2018-06-12T05:15:57.764Z,13.20
2018-06-12T05:18:26.673Z,12.63
2018-06-12T05:20:55.574Z,14.87
2018-06-12T05:23:24.487Z,10.93
2018-06-12T05:25:53.368Z,13.13
2018-06-12T05:28:22.279Z,10.67
2018-06-12T05:30:51.174Z,12.07
2018-06-12T05:33:20.122Z,12.00
2018-06-12T05:35:49.166Z,12.70
2018-06-12T05:38:18.276Z,11.67
2018-06-12T05:40:48.724Z,10.20
2018-06-12T05:43:17.729Z,8.80
2018-06-12T05:45:46.633Z,10.17
2018-06-12T05:48:15.312Z,9.03
2018-06-12T05:50:44.097Z,8.53
2018-06-12T05:53:13.050Z,10.47
2018-06-12T05:55:42.006Z,6.50
2018-06-12T05:58:10.902Z,9.07
2018-06-12T06:00:39.828Z,10.03
2018-06-12T06:03:08.707Z,8.53
2018-06-12T06:05:37.604Z,6.90
2018-06-12T06:08:06.505Z,9.93
2018-06-12T06:10:35.425Z,10.70
2018-06-12T06:13:04.286Z,5.00
2018-06-12T06:15:33.194Z,9.50
2018-06-12T06:18:02.094Z,7.03
2018-06-12T06:20:30.991Z,7.13
2018-06-12T06:22:59.883Z,8.97
2018-06-12T06:25:28.794Z,5.73
2018-06-12T06:27:57.803Z,8.87
2018-06-12T06:30:26.711Z,7.37
2018-06-12T06:32:55.606Z,10.47
2018-06-12T06:35:24.518Z,6.53
2018-06-12T06:37:54.410Z,9.33
2018-06-12T06:40:23.310Z,7.20
2018-06-12T06:42:52.207Z,8.97
2018-06-12T06:45:21.123Z,9.73
2018-06-12T06:47:50.002Z,5.87
2018-06-12T06:50:18.908Z,9.27
2018-06-12T06:52:47.791Z,7.60
2018-06-12T06:55:16.699Z,10.03
2018-06-12T06:57:45.600Z,6.87
2018-06-12T07:00:14.505Z,7.97
2018-06-12T07:02:43.713Z,7.47
2018-06-12T07:05:12.624Z,7.53
2018-06-12T07:07:41.520Z,9.37
2018-06-12T07:10:10.416Z,7.43
2018-06-12T07:12:39.298Z,7.73
2018-06-12T07:15:08.188Z,6.67
2018-06-12T07:17:37.180Z,6.20
2018-06-12T07:20:06.071Z,8.27
2018-06-12T07:22:34.942Z,8.53
2018-06-12T07:25:03.851Z,6.57
2018-06-12T07:27:32.738Z,6.57
2018-06-12T07:30:01.702Z,7.53
2018-06-12T07:32:30.601Z,8.27
2018-06-12T07:34:59.816Z,5.37
2018-06-12T07:37:28.751Z,5.47
2018-06-12T07:39:57.626Z,7.70
2018-06-12T07:42:26.526Z,8.10
2018-06-12T07:44:55.406Z,8.03
2018-06-12T07:47:24.316Z,8.30
2018-06-12T07:49:53.199Z,7.57
2018-06-12T07:52:22.107Z,5.67
2018-06-12T07:54:50.979Z,5.87
2018-06-12T07:57:19.873Z,6.97
2018-06-12T07:59:48.818Z,5.90
2018-06-12T08:02:17.711Z,8.53
2018-06-12T08:04:46.594Z,6.70
2018-06-12T08:07:15.487Z,6.57
2018-06-12T08:09:44.384Z,5.87
2018-06-12T08:12:13.280Z,6.00
2018-06-12T08:14:42.152Z,5.40
2018-06-12T08:17:11.035Z,4.00
2018-06-12T08:19:39.918Z,3.97
2018-06-12T08:22:08.820Z,3.97
2018-06-12T08:24:37.707Z,4.53
2018-06-12T08:27:06.603Z,5.13
2018-06-12T08:29:35.538Z,4.17
2018-06-12T08:32:04.378Z,4.10
2018-06-12T08:34:33.261Z,3.70
2018-06-12T08:37:02.154Z,4.33
2018-06-12T08:39:31.026Z,6.33
2018-06-12T08:41:59.923Z,5.37
2018-06-12T08:44:28.802Z,5.17
2018-06-12T08:46:57.695Z,3.57
2018-06-12T08:49:26.575Z,6.63
2018-06-12T08:51:55.253Z,6.80
2018-06-12T08:54:24.002Z,4.67
2018-06-12T08:56:52.902Z,6.90
2018-06-12T08:59:21.778Z,5.17
2018-06-12T09:01:50.724Z,5.03
2018-06-12T09:04:19.659Z,5.13
2018-06-12T09:06:48.588Z,7.03
2018-06-12T09:09:17.506Z,5.43
2018-06-12T09:11:46.400Z,6.17
2018-06-12T09:14:15.266Z,6.17
2018-06-12T09:16:44.176Z,4.30
2018-06-12T09:19:13.046Z,6.53
2018-06-12T09:21:41.952Z,4.57
2018-06-12T09:24:10.835Z,5.20
2018-06-12T09:26:39.738Z,6.50
2018-06-12T09:29:08.626Z,6.17
2018-06-12T09:31:37.535Z,4.40
2018-06-12T09:34:06.418Z,5.50
2018-06-12T09:36:35.927Z,4.37
2018-06-12T09:39:07.719Z,6.67
2018-06-12T09:41:36.659Z,7.23
2018-06-12T09:44:05.559Z,5.77
2018-06-12T09:46:34.443Z,5.07
2018-06-12T09:49:03.374Z,6.07
2018-06-12T09:51:32.254Z,5.73
2018-06-12T09:54:01.169Z,6.27
2018-06-12T09:56:30.071Z,3.77
2018-06-12T09:58:58.974Z,8.13
2018-06-12T10:01:27.871Z,5.70
2018-06-12T10:03:56.789Z,4.60
2018-06-12T10:06:25.671Z,6.20
2018-06-12T10:08:54.618Z,6.70
2018-06-12T10:11:23.527Z,8.20
2018-06-12T10:13:52.430Z,5.83
2018-06-12T10:16:21.330Z,6.33
2018-06-12T10:18:50.648Z,7.90
2018-06-12T10:21:19.490Z,5.13
2018-06-12T10:23:48.400Z,6.93
2018-06-12T10:26:17.295Z,5.77
2018-06-12T10:28:46.192Z,4.83
2018-06-12T10:31:15.096Z,3.83
2018-06-12T10:33:43.999Z,4.57
2018-06-12T10:36:12.870Z,5.37
2018-06-12T10:38:42.034Z,6.53
2018-06-12T10:41:13.012Z,6.97
2018-06-12T10:43:41.922Z,4.80
2018-06-12T10:46:10.786Z,6.10
2018-06-12T10:48:39.686Z,5.20
2018-06-12T10:51:08.349Z,5.10
2018-06-12T10:53:37.566Z,6.23
2018-06-12T10:56:06.518Z,6.43
2018-06-12T10:58:35.425Z,4.20
2018-06-12T11:01:04.318Z,6.70
2018-06-12T11:03:33.248Z,4.77
2018-06-12T11:06:02.118Z,6.03
2018-06-12T11:08:31.038Z,4.47
2018-06-12T11:10:59.930Z,8.13
2018-06-12T11:13:28.830Z,6.50
2018-06-12T11:15:57.721Z,6.90
2018-06-12T11:18:26.614Z,8.10
2018-06-12T11:20:55.511Z,6.00
2018-06-12T11:23:24.427Z,5.70
2018-06-12T11:25:53.319Z,11.10
2018-06-12T11:28:22.231Z,4.83
2018-06-12T11:30:51.135Z,6.77
2018-06-12T11:33:20.030Z,7.50
2018-06-12T11:35:48.920Z,7.77
2018-06-12T11:38:17.827Z,5.90
2018-06-12T11:40:46.703Z,6.40
2018-06-12T11:43:15.614Z,6.77
2018-06-12T11:45:44.515Z,7.57
2018-06-12T11:48:13.398Z,6.50
2018-06-12T11:50:42.355Z,7.43
2018-06-12T11:53:11.190Z,8.07
2018-06-12T11:55:40.087Z,5.50
2018-06-12T11:58:08.967Z,6.90
2018-06-12T12:00:37.875Z,5.97
2018-06-12T12:03:06.751Z,6.57
2018-06-12T12:05:35.656Z,6.40
2018-06-12T12:08:04.599Z,5.90
2018-06-12T12:10:33.522Z,4.70
2018-06-12T12:13:02.457Z,4.20
2018-06-12T12:15:31.368Z,4.07
2018-06-12T12:18:00.271Z,4.93
2018-06-12T12:20:29.194Z,6.80
2018-06-12T12:22:58.091Z,7.50
2018-06-12T12:25:26.994Z,7.37
2018-06-12T12:27:55.903Z,7.00
2018-06-12T12:30:24.852Z,4.30
2018-06-12T12:32:53.764Z,6.77
2018-06-12T12:35:22.755Z,6.80
2018-06-12T12:37:51.652Z,5.20
2018-06-12T12:40:20.547Z,5.37
2018-06-12T12:42:49.542Z,6.20
2018-06-12T12:45:18.433Z,5.93
2018-06-12T12:47:47.439Z,5.67
2018-06-12T12:50:16.318Z,7.97
2018-06-12T12:52:45.722Z,5.73
2018-06-12T12:55:14.599Z,5.73
2018-06-12T12:57:43.504Z,4.30
2018-06-12T13:00:12.382Z,6.07
2018-06-12T13:02:41.283Z,6.60
2018-06-12T13:05:10.166Z,4.77
2018-06-12T13:07:40.588Z,5.20
2018-06-12T13:10:09.631Z,6.77
2018-06-12T13:12:38.566Z,5.97
2018-06-12T13:15:07.423Z,5.07
2018-06-12T13:17:36.331Z,5.23
2018-06-12T13:20:05.467Z,4.37
2018-06-12T13:22:34.440Z,4.50
2018-06-12T13:25:03.471Z,6.30
2018-06-12T13:27:32.425Z,6.17
2018-06-12T13:30:01.343Z,5.77
2018-06-12T13:32:30.583Z,5.33
2018-06-12T13:34:59.500Z,4.57
2018-06-12T13:37:28.407Z,6.90
2018-06-12T13:39:57.349Z,4.83
2018-06-12T13:42:26.266Z,6.23
2018-06-12T13:44:55.139Z,6.03
2018-06-12T13:47:24.303Z,4.93
2018-06-12T13:49:52.962Z,5.07
2018-06-12T13:52:21.746Z,5.80
2018-06-12T13:54:50.673Z,4.13
2018-06-12T13:57:19.541Z,4.90
2018-06-12T13:59:48.426Z,4.93
2018-06-12T14:02:17.323Z,7.37
2018-06-12T14:04:46.198Z,5.50
2018-06-12T14:07:15.091Z,5.70
2018-06-12T14:09:44.004Z,4.47
2018-06-12T14:12:12.909Z,5.40
2018-06-12T14:14:41.820Z,6.80
2018-06-12T14:17:10.773Z,7.50
2018-06-12T14:19:39.762Z,6.23
2018-06-12T14:22:08.697Z,4.27
2018-06-12T14:24:37.584Z,5.80
2018-06-12T14:27:06.483Z,5.47
2018-06-12T14:29:35.374Z,4.07
2018-06-12T14:32:04.288Z,5.30
2018-06-12T14:34:33.174Z,7.47
2018-06-12T14:37:02.081Z,3.90
2018-06-12T14:39:30.971Z,5.67
2018-06-12T14:41:59.866Z,5.77
2018-06-12T14:44:28.782Z,5.73
2018-06-12T14:46:57.670Z,4.27
2018-06-12T14:49:26.587Z,5.43
2018-06-12T14:51:55.477Z,3.70
2018-06-12T14:54:24.390Z,5.70
2018-06-12T14:56:53.295Z,6.50
2018-06-12T14:59:22.215Z,5.83
2018-06-12T15:01:51.102Z,4.63
2018-06-12T15:04:20.006Z,7.63
2018-06-12T15:06:48.895Z,6.33
2018-06-12T15:09:17.823Z,4.57
2018-06-12T15:11:46.718Z,4.00
2018-06-12T15:14:15.638Z,4.83
2018-06-12T15:16:44.531Z,5.33
2018-06-12T15:19:13.462Z,6.53
2018-06-12T15:21:42.351Z,4.90
2018-06-12T15:24:11.274Z,4.87
2018-06-12T15:26:40.163Z,6.77
2018-06-12T15:29:08.852Z,4.07
2018-06-12T15:31:37.659Z,5.00
2018-06-12T15:34:06.570Z,3.40
2018-06-12T15:36:35.454Z,4.83
2018-06-12T15:39:05.990Z,5.00
2018-06-12T15:41:34.995Z,7.00
2018-06-12T15:44:03.952Z,5.53
2018-06-12T15:46:32.859Z,4.10
2018-06-12T15:49:01.809Z,5.80
2018-06-12T15:51:30.682Z,4.60
2018-06-12T15:53:59.637Z,5.10
2018-06-12T15:56:28.539Z,3.90
2018-06-12T15:58:58.015Z,6.10
2018-06-12T16:01:27.004Z,5.10
2018-06-12T16:03:56.330Z,6.80
2018-06-12T16:06:25.215Z,5.23
2018-06-12T16:08:54.134Z,6.37
2018-06-12T16:11:23.027Z,4.43
2018-06-12T16:13:51.944Z,7.10
2018-06-12T16:16:21.422Z,5.73
2018-06-12T16:18:51.363Z,7.80
2018-06-12T16:21:21.702Z,5.73
2018-06-12T16:23:51.622Z,6.63
2018-06-12T16:26:20.571Z,6.50
2018-06-12T16:28:49.917Z,7.80
2018-06-12T16:31:19.517Z,7.53
2018-06-12T16:33:48.506Z,7.07
2018-06-12T16:36:17.748Z,7.63
2018-06-12T16:38:47.491Z,9.40
2018-06-12T16:41:17.293Z,6.53
2018-06-12T16:43:46.666Z,6.80
2018-06-12T16:46:15.563Z,8.40
2018-06-12T16:48:44.498Z,6.10
2018-06-12T16:51:13.533Z,6.67
2018-06-12T16:53:42.432Z,5.33
2018-06-12T16:56:11.326Z,5.53
2018-06-12T16:58:40.246Z,6.23
2018-06-12T17:01:09.153Z,7.43
2018-06-12T17:03:38.026Z,7.53
2018-06-12T17:06:06.934Z,5.93
2018-06-12T17:08:35.831Z,8.50
2018-06-12T17:11:04.728Z,6.77
2018-06-12T17:13:33.736Z,6.27
2018-06-12T17:16:02.804Z,5.83
2018-06-12T17:18:31.670Z,5.07
2018-06-12T17:21:00.578Z,4.33
2018-06-12T17:23:29.880Z,7.60
2018-06-12T17:25:58.785Z,7.90
2018-06-12T17:28:27.680Z,5.97
2018-06-12T17:30:57.064Z,5.17
2018-06-12T17:33:26.446Z,5.57
2018-06-12T17:35:55.424Z,9.40
2018-06-12T17:38:24.440Z,4.80
2018-06-12T17:40:53.576Z,4.80
2018-06-12T17:43:22.455Z,5.30
2018-06-12T17:45:51.366Z,4.90
2018-06-12T17:48:20.254Z,4.30
2018-06-12T17:50:49.156Z,5.33
2018-06-12T17:53:17.825Z,6.37
2018-06-12T17:55:46.615Z,4.80
2018-06-12T17:58:15.491Z,6.20
2018-06-12T18:00:44.699Z,5.50
2018-06-12T18:03:13.686Z,5.03
2018-06-12T18:05:42.603Z,6.97
2018-06-12T18:08:11.507Z,4.93
2018-06-12T18:10:40.436Z,3.97
2018-06-12T18:13:09.282Z,7.50
2018-06-12T18:15:38.179Z,4.40
2018-06-12T18:18:07.060Z,5.30
2018-06-12T18:20:35.947Z,7.60
2018-06-12T18:23:04.823Z,6.10
2018-06-12T18:25:33.946Z,4.93
2018-06-12T18:28:02.801Z,8.10
2018-06-12T18:30:31.869Z,5.73
2018-06-12T18:33:01.042Z,5.87
2018-06-12T18:35:30.188Z,4.83
2018-06-12T18:37:59.142Z,5.90
2018-06-12T18:40:28.512Z,6.47
2018-06-12T18:42:57.451Z,5.50
2018-06-12T18:45:26.794Z,6.67
2018-06-12T18:47:55.671Z,4.67
2018-06-12T18:50:24.795Z,5.27
2018-06-12T18:52:54.181Z,5.37
2018-06-12T18:55:23.142Z,5.43
2018-06-12T18:57:51.995Z,4.97
2018-06-12T19:00:20.947Z,5.40
2018-06-12T19:02:49.930Z,6.90
2018-06-12T19:05:19.032Z,7.33
2018-06-12T19:07:48.720Z,5.10
2018-06-12T19:10:17.979Z,4.87
2018-06-12T19:12:47.731Z,5.80
2018-06-12T19:15:17.081Z,4.13
2018-06-12T19:17:46.004Z,6.23
2018-06-12T19:20:15.273Z,4.57
2018-06-12T19:22:44.184Z,4.27
2018-06-12T19:25:13.179Z,5.73
2018-06-12T19:27:42.513Z,4.67
2018-06-12T19:30:11.561Z,7.37
2018-06-12T19:32:40.597Z,3.90
2018-06-12T19:35:09.878Z,5.33
2018-06-12T19:37:39.886Z,4.77
2018-06-12T19:40:09.047Z,5.63
2018-06-12T19:42:39.578Z,6.07
2018-06-12T19:45:08.786Z,4.07
2018-06-12T19:47:38.018Z,6.00
2018-06-12T19:50:09.974Z,4.47
2018-06-12T19:52:39.250Z,5.53
2018-06-12T19:55:08.351Z,4.57
2018-06-12T19:57:37.418Z,4.63
2018-06-12T20:00:06.336Z,4.93
2018-06-12T20:02:35.661Z,4.20
2018-06-12T20:05:04.595Z,5.20
2018-06-12T20:07:33.836Z,6.83
2018-06-12T20:10:02.773Z,5.23
2018-06-12T20:12:32.095Z,5.10
2018-06-12T20:15:00.749Z,3.20
2018-06-12T20:17:29.546Z,3.70
2018-06-12T20:19:58.759Z,4.93
2018-06-12T20:22:28.890Z,5.10
2018-06-12T20:24:57.825Z,3.10
2018-06-12T20:27:26.675Z,3.97
2018-06-12T20:29:55.578Z,4.20
2018-06-12T20:32:24.792Z,5.90
2018-06-12T20:34:53.647Z,4.00
2018-06-12T20:37:22.539Z,3.77
2018-06-12T20:39:51.418Z,3.10
2018-06-12T20:42:20.323Z,5.27
2018-06-12T20:44:49.219Z,5.50
2018-06-12T20:47:18.137Z,5.00
2018-06-12T20:49:47.050Z,6.60
2018-06-12T20:52:15.958Z,4.27
2018-06-12T20:54:44.835Z,3.73
2018-06-12T20:57:13.746Z,3.70
2018-06-12T20:59:42.634Z,4.73
2018-06-12T21:02:11.919Z,4.27
2018-06-12T21:04:40.801Z,4.30
2018-06-12T21:07:09.815Z,5.50
2018-06-12T21:09:38.607Z,3.87
2018-06-12T21:12:07.523Z,4.73
2018-06-12T21:14:36.410Z,3.93
2018-06-12T21:17:05.308Z,5.73
2018-06-12T21:19:34.198Z,4.13
2018-06-12T21:22:03.084Z,5.63
2018-06-12T21:24:31.991Z,4.60
2018-06-12T21:27:00.875Z,5.50
2018-06-12T21:29:29.780Z,4.80
2018-06-12T21:31:58.672Z,4.77
2018-06-12T21:34:27.618Z,5.83
2018-06-12T21:36:56.506Z,6.47
2018-06-12T21:39:25.394Z,5.43
2018-06-12T21:41:54.300Z,6.37
2018-06-12T21:44:23.209Z,7.63
2018-06-12T21:46:52.099Z,6.97
2018-06-12T21:49:20.999Z,4.50
2018-06-12T21:51:49.895Z,5.03
2018-06-12T21:54:18.808Z,5.10
2018-06-12T21:56:47.749Z,6.20
2018-06-12T21:59:16.762Z,7.33
2018-06-12T22:01:45.620Z,5.13
2018-06-12T22:04:14.528Z,4.23
2018-06-12T22:06:43.425Z,6.13
2018-06-12T22:09:12.347Z,4.57
2018-06-12T22:11:41.766Z,6.27
2018-06-12T22:14:10.675Z,5.20
2018-06-12T22:16:39.559Z,6.10
2018-06-12T22:19:08.442Z,6.30
2018-06-12T22:21:37.332Z,5.47
2018-06-12T22:24:06.240Z,6.03
2018-06-12T22:26:35.114Z,4.93
2018-06-12T22:29:04.202Z,4.70
2018-06-12T22:31:33.072Z,5.67
2018-06-12T22:34:01.974Z,4.90
2018-06-12T22:36:30.856Z,5.33
2018-06-12T22:38:59.759Z,4.97
2018-06-12T22:41:28.631Z,4.10
2018-06-12T22:43:57.527Z,5.77
2018-06-12T22:46:26.410Z,5.73
2018-06-12T22:48:55.404Z,5.90
2018-06-12T22:51:24.292Z,4.63
2018-06-12T22:53:53.183Z,4.47
2018-06-12T22:56:22.066Z,4.53
2018-06-12T22:58:50.960Z,4.00
2018-06-12T23:01:19.846Z,6.77
2018-06-12T23:03:48.755Z,6.70
2018-06-12T23:06:18.430Z,5.67
2018-06-12T23:08:47.387Z,4.33
2018-06-12T23:11:16.280Z,4.53
2018-06-12T23:13:45.191Z,8.53
2018-06-12T23:16:14.107Z,5.07
2018-06-12T23:18:43.015Z,4.40
2018-06-12T23:21:52.558Z,4.70
2018-06-12T23:24:21.468Z,6.07
2018-06-12T23:26:50.359Z,5.80
2018-06-12T23:29:19.262Z,4.50
2018-06-12T23:31:48.154Z,3.63
2018-06-12T23:34:17.071Z,6.23
2018-06-12T23:36:51.558Z,5.17
2018-06-12T23:39:20.513Z,6.03
2018-06-12T23:41:49.356Z,3.70
2018-06-12T23:44:18.263Z,4.80
2018-06-12T23:46:47.154Z,6.13
2018-06-12T23:49:16.058Z,6.73
2018-06-12T23:51:44.967Z,5.03
2018-06-12T23:54:13.871Z,5.97
2018-06-12T23:56:42.758Z,4.37
2018-06-12T23:59:11.667Z,5.23
